createdAt,value
2022-11-15T00:02:00.358Z,24.31
2022-11-15T00:04:02.124Z,24.60
2022-11-15T00:06:04.576Z,24.31
2022-11-15T00:08:06.328Z,24.53
2022-11-15T00:10:08.416Z,24.05
2022-11-15T00:12:10.092Z,24.28
2022-11-15T00:14:11.848Z,23.73
2022-11-15T00:16:13.577Z,24.04
2022-11-15T00:18:15.572Z,23.88
2022-11-15T00:20:18.594Z,23.72
2022-11-15T00:22:20.416Z,23.84
2022-11-15T00:24:22.092Z,24.11
2022-11-15T00:26:23.712Z,23.94
2022-11-15T00:28:26.001Z,24.16
2022-11-15T00:30:27.813Z,23.91
2022-11-15T00:32:32.903Z,24.15
2022-11-15T00:34:34.625Z,24.03
2022-11-15T00:36:36.424Z,23.98
2022-11-15T00:38:39.640Z,23.90
2022-11-15T00:40:41.372Z,23.85
2022-11-15T00:42:43.142Z,23.76
2022-11-15T00:44:44.796Z,23.57
2022-11-15T00:46:46.494Z,23.56
2022-11-15T00:48:48.235Z,23.57
2022-11-15T00:50:50.316Z,23.76
2022-11-15T00:52:52.060Z,23.56
2022-11-15T00:54:53.766Z,23.71
2022-11-15T00:56:55.478Z,23.65
2022-11-15T00:58:57.157Z,23.73
2022-11-15T01:01:07.095Z,23.31
2022-11-15T01:03:08.819Z,23.64
2022-11-15T01:05:10.608Z,23.48
2022-11-15T01:07:12.333Z,23.62
2022-11-15T01:09:14.036Z,23.51
2022-11-15T01:11:15.762Z,23.81
2022-11-15T01:13:17.443Z,23.72
2022-11-15T01:15:19.287Z,23.79
2022-11-15T01:17:21.027Z,23.58
2022-11-15T01:19:22.828Z,23.68
2022-11-15T01:21:24.542Z,23.63
2022-11-15T01:23:26.339Z,23.40
2022-11-15T01:25:28.065Z,23.34
2022-11-15T01:27:29.764Z,23.40
2022-11-15T01:29:31.469Z,23.62
2022-11-15T01:31:33.195Z,23.17
2022-11-15T01:33:37.894Z,23.67
2022-11-15T01:35:40.212Z,23.56
2022-11-15T01:37:41.879Z,23.28
2022-11-15T01:39:43.551Z,23.34
2022-11-15T01:41:45.291Z,23.39
2022-11-15T01:43:57.860Z,23.49
2022-11-15T01:46:09.974Z,23.40
2022-11-15T01:48:11.699Z,23.45
2022-11-15T01:50:18.541Z,23.55
2022-11-15T01:52:21.045Z,23.56
2022-11-15T01:54:22.753Z,23.45
2022-11-15T01:56:26.723Z,23.36
2022-11-15T01:58:28.435Z,23.21
2022-11-15T02:00:30.677Z,23.38
2022-11-15T02:02:33.643Z,23.64
2022-11-15T02:04:41.536Z,23.16
2022-11-15T02:06:43.779Z,23.06
2022-11-15T02:08:45.647Z,23.39
2022-11-15T02:10:47.874Z,23.05
2022-11-15T02:12:49.620Z,23.02
2022-11-15T02:14:53.482Z,23.30
2022-11-15T02:17:16.895Z,23.22
2022-11-15T02:19:21.213Z,23.17
2022-11-15T02:21:22.639Z,23.14
2022-11-15T02:23:42.503Z,22.94
2022-11-15T02:26:14.783Z,22.80
2022-11-15T02:28:49.564Z,22.91
2022-11-15T02:30:53.886Z,22.72
2022-11-15T02:33:04.786Z,23.16
2022-11-15T02:35:18.009Z,22.96
2022-11-15T02:37:45.746Z,23.16
2022-11-15T02:39:52.525Z,22.84
2022-11-15T02:42:05.213Z,23.00
2022-11-15T02:44:26.156Z,23.05
2022-11-15T02:46:49.069Z,22.86
2022-11-15T02:48:50.820Z,22.78
2022-11-15T02:50:52.519Z,22.87
2022-11-15T02:52:54.226Z,23.04
2022-11-15T02:54:57.020Z,22.88
2022-11-15T02:57:11.877Z,23.07
2022-11-15T02:59:15.061Z,22.96
2022-11-15T03:01:39.825Z,22.87
2022-11-15T03:03:55.724Z,22.65
2022-11-15T03:06:29.188Z,22.82
2022-11-15T03:08:33.790Z,22.76
2022-11-15T03:10:48.463Z,22.82
2022-11-15T03:13:05.931Z,22.86
2022-11-15T03:15:10.643Z,23.09
2022-11-15T03:17:31.586Z,22.59
2022-11-15T03:19:41.264Z,22.70
2022-11-15T03:21:43.054Z,22.74
2022-11-15T03:23:44.719Z,22.82
2022-11-15T03:25:49.332Z,22.50
2022-11-15T03:27:53.257Z,22.75
2022-11-15T03:29:57.965Z,22.79
2022-11-15T03:32:09.054Z,22.60
2022-11-15T03:34:12.480Z,22.82
2022-11-15T03:36:14.174Z,22.62
2022-11-15T03:38:26.469Z,22.84
2022-11-15T03:40:41.940Z,22.69
2022-11-15T03:43:03.686Z,22.72
2022-11-15T03:45:27.052Z,22.47
2022-11-15T03:47:32.584Z,22.20
2022-11-15T03:49:35.808Z,22.11
2022-11-15T03:51:37.539Z,22.26
2022-11-15T03:53:39.369Z,22.21
2022-11-15T03:55:41.168Z,22.15
2022-11-15T03:57:42.889Z,21.97
2022-11-15T03:59:44.675Z,21.68
2022-11-15T04:01:46.543Z,21.55
2022-11-15T04:03:48.224Z,21.51
2022-11-15T04:05:49.956Z,22.03
2022-11-15T04:07:51.745Z,22.10
2022-11-15T04:09:53.709Z,21.87
2022-11-15T04:11:55.426Z,21.99
2022-11-15T04:13:57.186Z,22.04
2022-11-15T04:15:58.884Z,22.14
2022-11-15T04:18:00.596Z,22.10
2022-11-15T04:20:03.981Z,21.63
2022-11-15T04:22:05.656Z,21.95
2022-11-15T04:24:07.429Z,21.91
2022-11-15T04:26:20.949Z,22.11
2022-11-15T04:28:22.940Z,21.96
2022-11-15T04:30:24.649Z,22.24
2022-11-15T04:32:26.479Z,21.94
2022-11-15T04:34:28.286Z,21.95
2022-11-15T04:36:29.921Z,21.81
2022-11-15T04:38:31.568Z,21.50
2022-11-15T04:40:33.252Z,21.27
2022-11-15T04:42:35.029Z,20.97
2022-11-15T04:44:36.824Z,21.15
2022-11-15T04:46:38.549Z,20.96
2022-11-15T04:48:40.235Z,20.83
2022-11-15T04:50:41.968Z,20.64
2022-11-15T04:52:44.659Z,20.60
2022-11-15T04:54:49.180Z,20.61
2022-11-15T04:56:50.926Z,20.62
2022-11-15T04:58:52.580Z,20.55
2022-11-15T05:00:54.338Z,20.19
2022-11-15T05:02:56.895Z,19.92
2022-11-15T05:04:58.575Z,20.51
2022-11-15T05:07:00.364Z,19.88
2022-11-15T05:09:02.111Z,20.06
2022-11-15T05:11:03.882Z,20.23
2022-11-15T05:13:05.591Z,20.34
2022-11-15T05:15:07.687Z,19.68
2022-11-15T05:17:09.426Z,19.97
2022-11-15T05:19:11.062Z,19.69
2022-11-15T05:21:14.370Z,19.72
2022-11-15T05:23:16.110Z,19.79
2022-11-15T05:25:17.878Z,20.00
2022-11-15T05:27:19.575Z,19.66
2022-11-15T05:29:21.297Z,19.54
2022-11-15T05:31:23.261Z,19.73
2022-11-15T05:33:24.959Z,19.50
2022-11-15T05:35:41.403Z,19.95
2022-11-15T05:37:43.105Z,19.77
2022-11-15T05:39:44.769Z,19.68
2022-11-15T05:41:54.584Z,19.81
2022-11-15T05:43:56.302Z,19.62
2022-11-15T05:45:58.208Z,19.66
2022-11-15T05:48:00.099Z,19.56
2022-11-15T05:50:01.864Z,19.36
2022-11-15T05:52:05.145Z,19.64
2022-11-15T05:54:06.796Z,19.57
2022-11-15T05:56:09.114Z,19.43
2022-11-15T05:58:10.898Z,19.20
2022-11-15T06:00:13.225Z,19.59
2022-11-15T06:02:14.968Z,19.57
2022-11-15T06:04:16.750Z,19.26
2022-11-15T06:06:18.396Z,19.29
2022-11-15T06:08:20.085Z,19.52
2022-11-15T06:10:21.685Z,19.65
2022-11-15T06:12:23.290Z,19.41
2022-11-15T06:14:25.102Z,19.44
2022-11-15T06:16:26.695Z,19.43
2022-11-15T06:18:28.296Z,19.49
2022-11-15T06:20:30.210Z,19.33
2022-11-15T06:22:31.805Z,19.58
2022-11-15T06:24:33.405Z,19.57
2022-11-15T06:26:34.993Z,19.25
2022-11-15T06:28:36.631Z,19.21
2022-11-15T06:30:38.226Z,19.03
2022-11-15T06:32:39.818Z,19.43
2022-11-15T06:34:41.431Z,19.11
2022-11-15T06:36:43.216Z,19.23
2022-11-15T06:38:45.524Z,19.45
2022-11-15T06:40:47.109Z,19.27
2022-11-15T06:42:48.708Z,19.57
2022-11-15T06:44:50.295Z,19.32
2022-11-15T06:46:51.884Z,19.25
2022-11-15T06:48:53.822Z,19.56
2022-11-15T06:50:56.124Z,19.69
2022-11-15T06:53:02.151Z,19.67
2022-11-15T06:55:03.863Z,19.25
2022-11-15T06:57:05.851Z,19.52
2022-11-15T06:59:07.437Z,19.84
2022-11-15T07:01:10.852Z,19.32
2022-11-15T07:03:12.547Z,19.64
2022-11-15T07:05:14.571Z,19.29
2022-11-15T07:07:16.258Z,19.17
2022-11-15T07:09:17.903Z,19.48
2022-11-15T07:11:19.520Z,19.35
2022-11-15T07:13:21.126Z,19.69
2022-11-15T07:15:24.541Z,19.53
2022-11-15T07:17:26.186Z,19.23
2022-11-15T07:19:27.910Z,19.18
2022-11-15T07:21:29.498Z,19.63
2022-11-15T07:23:31.337Z,19.31
2022-11-15T07:25:33.166Z,19.33
2022-11-15T07:27:34.899Z,19.34
2022-11-15T07:29:36.513Z,19.31
2022-11-15T07:31:38.109Z,19.52
2022-11-15T07:33:39.717Z,19.40
2022-11-15T07:35:41.353Z,19.14
2022-11-15T07:37:42.938Z,19.31
2022-11-15T07:39:44.921Z,19.19
2022-11-15T07:41:46.513Z,19.54
2022-11-15T07:43:48.100Z,19.55
2022-11-15T07:45:52.377Z,19.52
2022-11-15T07:47:56.428Z,19.68
2022-11-15T07:49:58.038Z,19.33
2022-11-15T07:51:59.645Z,19.60
2022-11-15T07:54:01.311Z,19.56
2022-11-15T07:56:02.955Z,19.43
2022-11-15T07:58:08.703Z,19.65
2022-11-15T08:00:10.969Z,19.70
2022-11-15T08:02:12.667Z,19.42
2022-11-15T08:04:14.415Z,19.50
2022-11-15T08:06:16.010Z,19.77
2022-11-15T08:08:17.675Z,19.46
2022-11-15T08:10:19.318Z,19.36
2022-11-15T08:12:20.942Z,19.78
2022-11-15T08:14:22.576Z,19.92
2022-11-15T08:16:24.168Z,19.80
2022-11-15T08:18:25.877Z,19.67
2022-11-15T08:20:28.377Z,19.90
2022-11-15T08:22:30.016Z,19.85
2022-11-15T08:24:31.625Z,19.71
2022-11-15T08:26:33.217Z,19.77
2022-11-15T08:28:34.816Z,19.86
2022-11-15T08:30:40.270Z,19.58
2022-11-15T08:32:41.908Z,19.40
2022-11-15T08:34:43.522Z,19.39
2022-11-15T08:36:46.237Z,19.61
2022-11-15T08:38:48.012Z,19.80
2022-11-15T08:40:49.655Z,19.63
2022-11-15T08:42:51.315Z,19.76
2022-11-15T08:44:53.055Z,19.46
2022-11-15T08:46:54.687Z,19.40
2022-11-15T08:48:56.304Z,19.57
2022-11-15T08:50:58.093Z,19.34
2022-11-15T08:53:05.631Z,19.35
2022-11-15T08:55:07.719Z,19.44
2022-11-15T08:57:09.350Z,19.46
2022-11-15T08:59:10.997Z,19.44
2022-11-15T09:01:20.309Z,19.40
2022-11-15T09:03:21.932Z,19.50
2022-11-15T09:05:23.636Z,19.10
2022-11-15T09:07:25.861Z,19.49
2022-11-15T09:09:27.532Z,19.11
2022-11-15T09:11:29.198Z,19.20
2022-11-15T09:13:30.805Z,19.36
2022-11-15T09:15:32.461Z,19.27
2022-11-15T09:17:34.086Z,18.77
2022-11-15T09:19:35.741Z,18.93
2022-11-15T09:21:37.345Z,18.93
2022-11-15T09:23:39.047Z,18.79
2022-11-15T09:25:40.648Z,18.72
2022-11-15T09:27:42.255Z,18.88
2022-11-15T09:29:43.999Z,18.66
2022-11-15T09:31:45.623Z,19.16
2022-11-15T09:33:47.237Z,19.05
2022-11-15T09:35:48.855Z,18.86
2022-11-15T09:37:55.899Z,18.89
2022-11-15T09:39:58.038Z,18.68
2022-11-15T09:42:18.826Z,19.05
2022-11-15T09:44:32.384Z,18.85
2022-11-15T09:46:55.360Z,18.91
2022-11-15T09:48:58.339Z,18.89
2022-11-15T09:50:59.949Z,19.03
2022-11-15T09:53:01.562Z,18.90
2022-11-15T09:55:03.251Z,18.62
2022-11-15T09:57:19.898Z,19.03
2022-11-15T09:59:39.307Z,18.65
2022-11-15T10:02:02.395Z,19.02
2022-11-15T10:04:07.801Z,18.95
2022-11-15T10:06:23.882Z,18.61
2022-11-15T10:08:44.114Z,18.52
2022-11-15T10:10:47.306Z,18.49
2022-11-15T10:12:49.503Z,18.97
2022-11-15T10:14:59.728Z,18.98
2022-11-15T10:17:10.470Z,18.95
2022-11-15T10:19:47.313Z,18.50
2022-11-15T10:22:10.557Z,18.82
2022-11-15T10:24:12.819Z,18.81
2022-11-15T10:26:16.299Z,18.85
2022-11-15T10:28:22.410Z,18.97
2022-11-15T10:30:24.586Z,18.86
2022-11-15T10:32:26.189Z,18.75
2022-11-15T10:34:27.802Z,18.94
2022-11-15T10:36:29.383Z,18.66
2022-11-15T10:38:31.140Z,18.88
2022-11-15T10:40:32.893Z,18.61
2022-11-15T10:42:34.479Z,18.71
2022-11-15T10:44:36.061Z,18.88
2022-11-15T10:46:46.528Z,19.00
2022-11-15T10:48:49.024Z,18.72
2022-11-15T10:50:51.522Z,18.92
2022-11-15T10:52:53.118Z,18.83
2022-11-15T10:54:58.024Z,18.76
2022-11-15T10:57:00.597Z,18.94
2022-11-15T10:59:02.194Z,18.49
2022-11-15T11:01:28.127Z,18.89
2022-11-15T11:03:36.298Z,18.60
2022-11-15T11:05:42.069Z,18.85
2022-11-15T11:07:44.479Z,18.42
2022-11-15T11:09:46.081Z,18.75
2022-11-15T11:11:49.364Z,18.65
2022-11-15T11:13:51.010Z,18.68
2022-11-15T11:16:07.276Z,18.61
2022-11-15T11:18:11.928Z,18.77
2022-11-15T11:20:19.463Z,18.67
2022-11-15T11:22:26.712Z,18.35
2022-11-15T11:24:37.158Z,18.64
2022-11-15T11:26:55.725Z,18.47
2022-11-15T11:29:03.380Z,18.93
2022-11-15T11:31:29.907Z,18.72
2022-11-15T11:33:45.830Z,18.52
2022-11-15T11:35:50.017Z,18.95
2022-11-15T11:37:57.454Z,18.64
2022-11-15T11:40:43.522Z,18.88
2022-11-15T11:43:22.067Z,18.52
2022-11-15T11:45:47.412Z,18.76
2022-11-15T11:47:53.311Z,18.45
2022-11-15T11:50:15.069Z,19.01
2022-11-15T11:52:25.532Z,18.83
2022-11-15T11:54:38.093Z,18.48
2022-11-15T11:56:41.178Z,18.82
2022-11-15T11:58:46.582Z,18.89
2022-11-15T12:00:52.392Z,18.69
2022-11-15T12:03:00.038Z,18.56
2022-11-15T12:05:11.509Z,18.54
2022-11-15T12:07:33.401Z,18.82
2022-11-15T12:09:36.505Z,18.91
2022-11-15T12:11:40.318Z,18.58
2022-11-15T12:13:42.177Z,18.96
2022-11-15T12:16:06.158Z,18.58
2022-11-15T12:18:14.075Z,18.92
2022-11-15T12:20:16.907Z,18.82
2022-11-15T12:22:55.175Z,18.82
2022-11-15T12:25:31.637Z,18.82
2022-11-15T12:27:51.856Z,19.17
2022-11-15T12:29:58.098Z,18.92
2022-11-15T12:31:59.791Z,18.90
2022-11-15T12:34:07.275Z,18.94
2022-11-15T12:36:21.251Z,19.31
2022-11-15T12:39:01.152Z,19.29
2022-11-15T12:41:24.088Z,19.06
2022-11-15T12:43:44.044Z,19.13
2022-11-15T12:45:46.615Z,19.09
2022-11-15T12:47:48.195Z,19.05
2022-11-15T12:49:49.955Z,19.52
2022-11-15T12:51:51.623Z,19.53
2022-11-15T12:53:53.357Z,19.96
2022-11-15T12:56:04.183Z,20.54
2022-11-15T12:58:27.275Z,21.07
2022-11-15T13:00:34.656Z,20.83
2022-11-15T13:02:40.107Z,20.23
2022-11-15T13:04:41.950Z,20.47
2022-11-15T13:06:53.680Z,20.96
2022-11-15T13:08:55.431Z,20.63
2022-11-15T13:10:57.034Z,20.74
2022-11-15T13:13:08.099Z,20.86
2022-11-15T13:15:15.787Z,20.97
2022-11-15T13:17:24.942Z,21.08
2022-11-15T13:19:27.108Z,21.01
2022-11-15T13:21:28.815Z,20.89
2022-11-15T13:23:30.501Z,21.20
2022-11-15T13:25:53.544Z,21.20
2022-11-15T13:27:55.910Z,21.04
2022-11-15T13:29:57.757Z,21.36
2022-11-15T13:31:59.446Z,21.09
2022-11-15T13:34:04.080Z,21.28
2022-11-15T13:36:17.794Z,21.29
2022-11-15T13:38:33.683Z,21.14
2022-11-15T13:40:37.146Z,21.23
2022-11-15T13:42:44.581Z,21.36
2022-11-15T13:44:58.646Z,21.29
2022-11-15T13:47:16.706Z,21.35
2022-11-15T13:49:18.401Z,21.31
2022-11-15T13:51:48.997Z,21.43
2022-11-15T13:54:12.744Z,21.50
2022-11-15T13:56:16.203Z,21.14
2022-11-15T13:58:22.893Z,21.19
2022-11-15T14:00:40.832Z,21.61
2022-11-15T14:02:42.435Z,21.47
2022-11-15T14:05:15.071Z,21.71
2022-11-15T14:07:22.230Z,21.76
2022-11-15T14:09:23.968Z,21.98
2022-11-15T14:11:25.642Z,21.71
2022-11-15T14:13:31.380Z,21.89
2022-11-15T14:15:37.366Z,22.23
2022-11-15T14:17:39.063Z,22.11
2022-11-15T14:19:40.926Z,21.99
2022-11-15T14:22:11.398Z,22.02
2022-11-15T14:24:19.875Z,22.07
2022-11-15T14:26:33.056Z,22.20
2022-11-15T14:28:35.433Z,21.98
2022-11-15T14:30:37.465Z,22.05
2022-11-15T14:32:47.092Z,22.25
2022-11-15T14:34:50.226Z,22.47
2022-11-15T14:36:52.028Z,22.51
2022-11-15T14:38:54.056Z,22.15
2022-11-15T14:40:55.842Z,22.52
2022-11-15T14:42:57.648Z,22.58
2022-11-15T14:44:59.347Z,22.56
2022-11-15T14:47:05.457Z,22.57
2022-11-15T14:49:07.243Z,22.78
2022-11-15T14:51:18.907Z,22.70
2022-11-15T14:53:20.618Z,22.75
2022-11-15T14:55:27.290Z,22.82
2022-11-15T14:57:29.284Z,22.77
2022-11-15T14:59:31.012Z,22.85
2022-11-15T15:01:32.695Z,23.00
2022-11-15T15:03:34.418Z,22.88
2022-11-15T15:05:47.604Z,22.86
2022-11-15T15:07:49.440Z,23.13
2022-11-15T15:09:51.332Z,22.83
2022-11-15T15:11:53.608Z,23.00
2022-11-15T15:13:55.376Z,23.20
2022-11-15T15:15:57.042Z,23.44
2022-11-15T15:17:58.827Z,23.49
2022-11-15T15:20:00.668Z,23.29
2022-11-15T15:22:02.292Z,23.44
2022-11-15T15:24:04.289Z,23.65
2022-11-15T15:26:06.105Z,23.52
2022-11-15T15:28:08.131Z,23.83
2022-11-15T15:30:10.605Z,23.61
2022-11-15T15:32:12.339Z,23.96
2022-11-15T15:34:16.819Z,23.68
2022-11-15T15:36:19.331Z,23.71
2022-11-15T15:38:21.126Z,23.84
2022-11-15T15:40:23.454Z,23.83
2022-11-15T15:42:25.112Z,24.06
2022-11-15T15:44:26.801Z,24.17
2022-11-15T15:46:28.741Z,23.95
2022-11-15T15:48:31.432Z,23.94
2022-11-15T15:50:34.653Z,23.92
2022-11-15T15:52:36.371Z,23.91
2022-11-15T15:54:38.491Z,23.82
2022-11-15T15:56:41.328Z,23.84
2022-11-15T15:58:43.113Z,23.69
2022-11-15T16:00:46.257Z,23.73
2022-11-15T16:02:48.060Z,23.76
2022-11-15T16:04:50.963Z,23.84
2022-11-15T16:06:52.842Z,24.03
2022-11-15T16:09:14.019Z,24.11
2022-11-15T16:11:16.550Z,24.17
2022-11-15T16:13:18.281Z,24.12
2022-11-15T16:15:20.155Z,24.17
2022-11-15T16:17:23.530Z,24.54
2022-11-15T16:19:26.299Z,24.29
2022-11-15T16:21:28.789Z,24.22
2022-11-15T16:23:30.536Z,24.39
2022-11-15T16:25:59.896Z,24.48
2022-11-15T16:28:01.569Z,24.36
2022-11-15T16:30:03.428Z,24.57
2022-11-15T16:32:05.106Z,24.54
2022-11-15T16:34:06.786Z,24.47
2022-11-15T16:36:29.971Z,24.61
2022-11-15T16:38:32.947Z,24.62
2022-11-15T16:40:35.025Z,24.79
2022-11-15T16:42:36.780Z,24.58
2022-11-15T16:44:38.439Z,24.77
2022-11-15T16:46:41.876Z,24.94
2022-11-15T16:48:43.591Z,24.65
2022-11-15T16:50:45.317Z,24.75
2022-11-15T16:52:47.014Z,25.11
2022-11-15T16:54:48.632Z,24.71
2022-11-15T16:56:50.373Z,24.80
2022-11-15T16:58:52.061Z,25.04
2022-11-15T17:00:54.548Z,24.94
2022-11-15T17:02:56.367Z,24.81
2022-11-15T17:04:58.057Z,24.80
2022-11-15T17:06:59.820Z,25.01
2022-11-15T17:09:01.799Z,25.19
2022-11-15T17:11:07.627Z,25.36
2022-11-15T17:13:14.366Z,25.63
2022-11-15T17:15:16.143Z,25.17
2022-11-15T17:17:17.870Z,25.34
2022-11-15T17:19:20.499Z,25.37
2022-11-15T17:21:22.362Z,25.40
2022-11-15T17:23:24.546Z,25.20
2022-11-15T17:25:26.447Z,25.39
2022-11-15T17:27:28.105Z,25.37
2022-11-15T17:29:29.741Z,25.50
2022-11-15T17:31:31.441Z,25.38
2022-11-15T17:33:33.230Z,25.42
2022-11-15T17:35:35.198Z,25.79
2022-11-15T17:37:36.893Z,25.67
2022-11-15T17:39:38.487Z,25.50
2022-11-15T17:41:40.161Z,25.69
2022-11-15T17:43:42.455Z,25.78
2022-11-15T17:45:44.147Z,25.47
2022-11-15T17:47:45.791Z,25.42
2022-11-15T17:49:47.486Z,25.86
2022-11-15T17:51:50.286Z,25.80
2022-11-15T17:53:52.170Z,25.80
2022-11-15T17:55:54.683Z,25.38
2022-11-15T17:57:56.377Z,25.22
2022-11-15T17:59:58.067Z,25.25
2022-11-15T18:01:59.924Z,24.80
2022-11-15T18:04:02.543Z,24.13
2022-11-15T18:06:05.693Z,24.67
2022-11-15T18:08:11.415Z,23.58
2022-11-15T18:10:16.135Z,23.47
2022-11-15T18:12:17.805Z,23.60
2022-11-15T18:14:19.607Z,23.83
2022-11-15T18:16:22.883Z,23.95
2022-11-15T18:18:24.551Z,23.78
2022-11-15T18:20:28.967Z,23.79
2022-11-15T18:22:30.893Z,23.71
2022-11-15T18:24:33.897Z,23.69
2022-11-15T18:26:35.492Z,23.54
2022-11-15T18:28:41.791Z,23.80
2022-11-15T18:30:43.587Z,23.68
2022-11-15T18:32:45.244Z,23.74
2022-11-15T18:34:46.905Z,23.74
2022-11-15T18:36:50.586Z,23.57
2022-11-15T18:38:59.007Z,23.84
2022-11-15T18:41:07.766Z,23.52
2022-11-15T18:43:09.547Z,23.21
2022-11-15T18:45:11.325Z,23.22
2022-11-15T18:47:13.071Z,23.41
2022-11-15T18:49:15.387Z,23.69
2022-11-15T18:51:19.184Z,24.06
2022-11-15T18:53:21.386Z,23.57
2022-11-15T18:55:23.058Z,23.36
2022-11-15T18:57:24.815Z,23.14
2022-11-15T18:59:26.657Z,23.61
2022-11-15T19:01:30.403Z,23.15
2022-11-15T19:03:36.227Z,23.17
2022-11-15T19:05:38.296Z,23.23
2022-11-15T19:07:40.015Z,23.24
2022-11-15T19:09:41.817Z,23.43
2022-11-15T19:11:44.440Z,23.56
2022-11-15T19:13:46.202Z,23.07
2022-11-15T19:15:47.919Z,23.44
2022-11-15T19:17:49.647Z,23.23
2022-11-15T19:19:51.948Z,22.84
2022-11-15T19:21:53.767Z,22.83
2022-11-15T19:23:55.495Z,23.28
2022-11-15T19:26:00.060Z,23.54
2022-11-15T19:28:01.762Z,23.53
2022-11-15T19:30:03.499Z,23.57
2022-11-15T19:32:05.368Z,23.20
2022-11-15T19:34:07.694Z,22.98
2022-11-15T19:36:12.392Z,23.34
2022-11-15T19:38:14.158Z,23.56
2022-11-15T19:40:16.345Z,22.97
2022-11-15T19:42:18.022Z,23.26
2022-11-15T19:44:19.889Z,23.15
2022-11-15T19:46:22.636Z,23.04
2022-11-15T19:48:24.374Z,23.17
2022-11-15T19:50:27.244Z,23.03
2022-11-15T19:52:29.048Z,23.21
2022-11-15T19:54:30.741Z,23.39
2022-11-15T19:56:33.127Z,23.39
2022-11-15T19:58:34.846Z,23.52
2022-11-15T20:00:36.558Z,23.68
2022-11-15T20:02:38.341Z,23.80
2022-11-15T20:04:40.048Z,23.84
2022-11-15T20:06:42.380Z,23.90
2022-11-15T20:08:44.803Z,23.98
2022-11-15T20:10:46.552Z,23.95
2022-11-15T20:12:48.259Z,23.67
2022-11-15T20:14:49.966Z,23.98
2022-11-15T20:16:54.455Z,23.85
2022-11-15T20:18:56.515Z,24.01
2022-11-15T20:20:58.256Z,24.11
2022-11-15T20:23:02.421Z,24.01
2022-11-15T20:25:05.549Z,24.25
2022-11-15T20:27:07.222Z,24.08
2022-11-15T20:29:09.073Z,24.32
2022-11-15T20:31:11.007Z,24.44
2022-11-15T20:33:13.203Z,24.49
2022-11-15T20:35:14.988Z,24.26
2022-11-15T20:37:16.697Z,24.55
2022-11-15T20:39:18.421Z,24.46
2022-11-15T20:41:20.048Z,24.59
2022-11-15T20:43:22.133Z,24.70
2022-11-15T20:45:23.884Z,24.90
2022-11-15T20:47:30.156Z,24.94
2022-11-15T20:49:32.061Z,24.83
2022-11-15T20:51:33.779Z,25.21
2022-11-15T20:53:35.600Z,25.14
2022-11-15T20:55:41.467Z,25.34
2022-11-15T20:57:43.243Z,25.51
2022-11-15T20:59:44.965Z,25.58
2022-11-15T21:01:46.711Z,25.52
2022-11-15T21:03:48.528Z,25.70
2022-11-15T21:05:52.424Z,25.52
2022-11-15T21:07:54.083Z,25.87
2022-11-15T21:09:55.750Z,25.67
2022-11-15T21:11:57.469Z,25.79
2022-11-15T21:13:59.163Z,25.58
2022-11-15T21:16:00.867Z,25.95
2022-11-15T21:18:02.556Z,25.89
2022-11-15T21:20:04.542Z,25.84
2022-11-15T21:22:06.445Z,26.34
2022-11-15T21:24:08.969Z,26.44
2022-11-15T21:26:10.640Z,26.22
2022-11-15T21:28:12.372Z,26.33
2022-11-15T21:30:14.258Z,26.59
2022-11-15T21:32:16.061Z,27.15
2022-11-15T21:34:17.915Z,26.90
2022-11-15T21:36:19.614Z,26.82
2022-11-15T21:38:21.892Z,27.09
2022-11-15T21:40:23.939Z,27.00
2022-11-15T21:42:25.647Z,27.38
2022-11-15T21:44:27.321Z,27.42
2022-11-15T21:46:29.559Z,27.65
2022-11-15T21:48:32.355Z,27.39
2022-11-15T21:50:34.370Z,27.47
2022-11-15T21:52:36.119Z,27.29
2022-11-15T21:54:37.795Z,26.97
2022-11-15T21:56:39.486Z,27.10
2022-11-15T21:58:41.181Z,27.17
2022-11-15T22:00:44.037Z,27.65
2022-11-15T22:02:45.747Z,27.50
2022-11-15T22:04:47.471Z,27.93
2022-11-15T22:06:49.255Z,28.02
2022-11-15T22:08:50.953Z,28.10
2022-11-15T22:10:52.653Z,27.75
2022-11-15T22:12:54.356Z,27.47
2022-11-15T22:14:56.110Z,27.59
2022-11-15T22:16:57.885Z,27.68
2022-11-15T22:18:59.823Z,27.48
2022-11-15T22:21:10.400Z,27.57
2022-11-15T22:23:12.153Z,27.86
2022-11-15T22:25:14.093Z,27.59
2022-11-15T22:27:15.822Z,27.60
2022-11-15T22:29:17.637Z,27.69
2022-11-15T22:31:19.341Z,27.53
2022-11-15T22:33:22.938Z,27.93
2022-11-15T22:35:24.796Z,27.65
2022-11-15T22:37:26.516Z,27.68
2022-11-15T22:39:28.276Z,27.54
2022-11-15T22:41:29.953Z,27.10
2022-11-15T22:43:31.756Z,27.32
2022-11-15T22:45:33.601Z,27.62
2022-11-15T22:47:35.292Z,27.25
2022-11-15T22:49:37.133Z,27.21
2022-11-15T22:51:38.847Z,27.37
2022-11-15T22:53:40.580Z,27.43
2022-11-15T22:55:42.293Z,27.69
2022-11-15T22:57:44.274Z,27.81
2022-11-15T22:59:46.007Z,27.37
2022-11-15T23:01:47.796Z,27.54
2022-11-15T23:03:49.562Z,27.39
2022-11-15T23:05:51.300Z,27.20
2022-11-15T23:07:53.201Z,27.02
2022-11-15T23:09:54.977Z,27.07
2022-11-15T23:11:56.704Z,26.97
2022-11-15T23:13:58.525Z,26.85
2022-11-15T23:16:04.369Z,26.89
2022-11-15T23:18:06.121Z,26.98
2022-11-15T23:20:29.421Z,26.60
2022-11-15T23:22:30.343Z,26.65
2022-11-15T23:24:32.709Z,26.72
2022-11-15T23:26:34.416Z,26.92
2022-11-15T23:28:36.383Z,27.01
2022-11-15T23:30:38.307Z,26.87
2022-11-15T23:32:40.008Z,26.64
2022-11-15T23:34:45.375Z,26.69
2022-11-15T23:36:47.111Z,26.99
2022-11-15T23:38:48.813Z,26.98
2022-11-15T23:40:54.119Z,26.88
2022-11-15T23:42:57.567Z,26.93
2022-11-15T23:44:59.281Z,26.98
2022-11-15T23:47:00.999Z,26.83
2022-11-15T23:49:02.913Z,27.08
2022-11-15T23:51:04.768Z,26.83
2022-11-15T23:53:06.522Z,26.86
2022-11-15T23:55:08.794Z,26.83
2022-11-15T23:57:10.528Z,26.72
2022-11-15T23:59:12.226Z,26.70
